Terminal Aerodrome Forecast
Issued by NWS Cheyenne, WY

Home | Current Version | Previous Version | Text Only | Print | Product List | Glossary On
Versions: 1 2 3 4 5 6 7 8 9 10 11 12 13 14 15 16 17 18 19 20 21 22 23 24 25 26 27 28 29 30 31 32 33
000
FTUS45 KCYS 282300
TAFCYS
TAF
KCYS 282337Z 2900/2924 13013G24KT P6SM SCT060 BKN090
      TEMPO 2900/2902 VRB20G35KT 5SM TSRA BKN040CB
     FM290300 18009KT P6SM BKN090
     FM290800 25008KT P6SM BKN050
      TEMPO 2910/2914 4SM BR OVC025
     FM291500 36010G20KT P6SM OVC050
     FM291900 01012KT 4SM -SHRA OVC040
      TEMPO 2920/2924 3SM TSRA OVC025CB=

USA.gov is the U.S. government's official web portal to all federal, state and local government web resources and services.